sensor_id;sensor_type;location;lat;lon;timestamp;temperature;humidity
31661;DHT22;18267;52.234;7.444;2023-07-09T00:01:52;23.90;94.80
31661;DHT22;18267;52.234;7.444;2023-07-09T00:04:18;23.80;95.10
31661;DHT22;18267;52.234;7.444;2023-07-09T00:06:57;23.80;95.10
31661;DHT22;18267;52.234;7.444;2023-07-09T00:09:47;23.70;95.50
31661;DHT22;18267;52.234;7.444;2023-07-09T00:12:16;23.70;95.80
31661;DHT22;18267;52.234;7.444;2023-07-09T00:14:43;23.60;95.90
31661;DHT22;18267;52.234;7.444;2023-07-09T00:17:18;23.70;95.80
31661;DHT22;18267;52.234;7.444;2023-07-09T00:19:45;23.60;95.80
31661;DHT22;18267;52.234;7.444;2023-07-09T00:22:16;23.70;95.70
31661;DHT22;18267;52.234;7.444;2023-07-09T00:24:46;23.70;96.30
31661;DHT22;18267;52.234;7.444;2023-07-09T00:27:13;23.70;96.30
31661;DHT22;18267;52.234;7.444;2023-07-09T00:29:41;23.70;96.40
31661;DHT22;18267;52.234;7.444;2023-07-09T00:32:18;23.60;96.50
31661;DHT22;18267;52.234;7.444;2023-07-09T00:34:46;23.60;96.30
31661;DHT22;18267;52.234;7.444;2023-07-09T00:37:19;23.60;96.30
31661;DHT22;18267;52.234;7.444;2023-07-09T00:39:48;23.50;96.60
31661;DHT22;18267;52.234;7.444;2023-07-09T00:42:20;23.50;96.90
31661;DHT22;18267;52.234;7.444;2023-07-09T00:44:53;23.50;97.00
31661;DHT22;18267;52.234;7.444;2023-07-09T00:50:50;23.60;96.90
31661;DHT22;18267;52.234;7.444;2023-07-09T00:53:29;23.50;96.60
31661;DHT22;18267;52.234;7.444;2023-07-09T00:56:06;23.50;96.90
31661;DHT22;18267;52.234;7.444;2023-07-09T00:58:34;23.30;97.20
31661;DHT22;18267;52.234;7.444;2023-07-09T01:01:07;23.40;97.60
31661;DHT22;18267;52.234;7.444;2023-07-09T01:03:39;23.30;97.50
31661;DHT22;18267;52.234;7.444;2023-07-09T01:06:25;23.30;97.90
31661;DHT22;18267;52.234;7.444;2023-07-09T01:08:55;23.30;98.10
31661;DHT22;18267;52.234;7.444;2023-07-09T01:11:23;23.20;98.10
31661;DHT22;18267;52.234;7.444;2023-07-09T01:13:55;23.20;98.10
31661;DHT22;18267;52.234;7.444;2023-07-09T01:16:24;23.20;98.40
31661;DHT22;18267;52.234;7.444;2023-07-09T01:19:07;23.20;98.90
31661;DHT22;18267;52.234;7.444;2023-07-09T01:21:42;23.10;99.00
31661;DHT22;18267;52.234;7.444;2023-07-09T01:24:45;23.10;98.80
31661;DHT22;18267;52.234;7.444;2023-07-09T01:27:03;23.10;99.00
31661;DHT22;18267;52.234;7.444;2023-07-09T01:29:34;23.10;99.20
31661;DHT22;18267;52.234;7.444;2023-07-09T01:32:01;23.00;99.30
31661;DHT22;18267;52.234;7.444;2023-07-09T01:34:28;22.90;99.80
31661;DHT22;18267;52.234;7.444;2023-07-09T01:36:55;22.90;99.90
31661;DHT22;18267;52.234;7.444;2023-07-09T01:39:21;22.90;99.90
31661;DHT22;18267;52.234;7.444;2023-07-09T01:41:48;22.90;99.90
31661;DHT22;18267;52.234;7.444;2023-07-09T01:44:14;22.80;99.90
31661;DHT22;18267;52.234;7.444;2023-07-09T01:46:49;22.80;99.90
31661;DHT22;18267;52.234;7.444;2023-07-09T01:49:16;22.90;99.90
31661;DHT22;18267;52.234;7.444;2023-07-09T01:51:44;22.90;99.90
31661;DHT22;18267;52.234;7.444;2023-07-09T01:54:12;22.80;99.90
31661;DHT22;18267;52.234;7.444;2023-07-09T01:56:38;22.70;99.90
31661;DHT22;18267;52.234;7.444;2023-07-09T01:59:04;22.60;99.90
31661;DHT22;18267;52.234;7.444;2023-07-09T02:01:30;22.70;99.90
31661;DHT22;18267;52.234;7.444;2023-07-09T02:03:55;22.50;99.90
31661;DHT22;18267;52.234;7.444;2023-07-09T02:06:21;22.50;99.90
31661;DHT22;18267;52.234;7.444;2023-07-09T02:08:50;22.60;99.90
31661;DHT22;18267;52.234;7.444;2023-07-09T02:11:17;22.50;99.90
31661;DHT22;18267;52.234;7.444;2023-07-09T02:13:43;22.50;99.90
31661;DHT22;18267;52.234;7.444;2023-07-09T02:16:09;22.40;99.90
31661;DHT22;18267;52.234;7.444;2023-07-09T02:18:34;22.30;99.90
31661;DHT22;18267;52.234;7.444;2023-07-09T02:21:01;22.30;99.90
31661;DHT22;18267;52.234;7.444;2023-07-09T02:23:27;22.30;99.90
31661;DHT22;18267;52.234;7.444;2023-07-09T02:25:53;22.30;99.90
31661;DHT22;18267;52.234;7.444;2023-07-09T02:28:27;22.30;99.90
31661;DHT22;18267;52.234;7.444;2023-07-09T02:31:02;22.30;99.90
31661;DHT22;18267;52.234;7.444;2023-07-09T02:33:44;22.20;99.90
31661;DHT22;18267;52.234;7.444;2023-07-09T02:36:16;22.20;99.90
31661;DHT22;18267;52.234;7.444;2023-07-09T02:38:42;22.30;99.90
31661;DHT22;18267;52.234;7.444;2023-07-09T02:41:10;22.20;99.90
31661;DHT22;18267;52.234;7.444;2023-07-09T02:43:45;22.00;99.90
31661;DHT22;18267;52.234;7.444;2023-07-09T02:46:10;21.80;99.90
31661;DHT22;18267;52.234;7.444;2023-07-09T02:48:48;21.90;99.90
31661;DHT22;18267;52.234;7.444;2023-07-09T02:51:14;21.90;99.90
31661;DHT22;18267;52.234;7.444;2023-07-09T02:53:39;21.80;99.90
31661;DHT22;18267;52.234;7.444;2023-07-09T02:56:05;21.80;99.90
31661;DHT22;18267;52.234;7.444;2023-07-09T02:58:31;21.90;99.90
31661;DHT22;18267;52.234;7.444;2023-07-09T03:00:57;21.90;99.90
31661;DHT22;18267;52.234;7.444;2023-07-09T03:03:23;22.00;99.90
31661;DHT22;18267;52.234;7.444;2023-07-09T03:05:48;22.00;99.90
31661;DHT22;18267;52.234;7.444;2023-07-09T03:08:14;22.10;99.90
31661;DHT22;18267;52.234;7.444;2023-07-09T03:10:41;22.00;99.90
31661;DHT22;18267;52.234;7.444;2023-07-09T03:13:06;21.90;99.90
31661;DHT22;18267;52.234;7.444;2023-07-09T03:15:32;21.90;99.90
31661;DHT22;18267;52.234;7.444;2023-07-09T03:17:58;21.80;99.90
31661;DHT22;18267;52.234;7.444;2023-07-09T03:20:28;21.90;99.90
31661;DHT22;18267;52.234;7.444;2023-07-09T03:22:57;21.80;99.90
31661;DHT22;18267;52.234;7.444;2023-07-09T03:25:23;21.80;99.90
31661;DHT22;18267;52.234;7.444;2023-07-09T03:27:58;21.80;99.90
31661;DHT22;18267;52.234;7.444;2023-07-09T03:30:24;21.80;99.90
31661;DHT22;18267;52.234;7.444;2023-07-09T03:32:52;21.80;99.90
31661;DHT22;18267;52.234;7.444;2023-07-09T03:35:22;21.80;99.90
31661;DHT22;18267;52.234;7.444;2023-07-09T03:37:47;21.80;99.90
31661;DHT22;18267;52.234;7.444;2023-07-09T03:40:23;21.80;99.90
31661;DHT22;18267;52.234;7.444;2023-07-09T03:42:49;21.80;99.90
31661;DHT22;18267;52.234;7.444;2023-07-09T03:45:15;21.80;99.90
31661;DHT22;18267;52.234;7.444;2023-07-09T03:47:40;21.60;99.90
31661;DHT22;18267;52.234;7.444;2023-07-09T03:50:08;21.60;99.90
31661;DHT22;18267;52.234;7.444;2023-07-09T03:52:34;21.50;99.90
31661;DHT22;18267;52.234;7.444;2023-07-09T03:55:00;21.40;99.90
31661;DHT22;18267;52.234;7.444;2023-07-09T03:57:27;21.50;99.90
31661;DHT22;18267;52.234;7.444;2023-07-09T03:59:52;21.40;99.90
31661;DHT22;18267;52.234;7.444;2023-07-09T04:02:18;21.50;99.90
31661;DHT22;18267;52.234;7.444;2023-07-09T04:04:44;21.40;99.90
31661;DHT22;18267;52.234;7.444;2023-07-09T04:07:09;21.50;99.90
31661;DHT22;18267;52.234;7.444;2023-07-09T04:09:35;21.40;99.90
31661;DHT22;18267;52.234;7.444;2023-07-09T04:12:11;21.30;99.90
31661;DHT22;18267;52.234;7.444;2023-07-09T04:14:39;21.20;99.90
31661;DHT22;18267;52.234;7.444;2023-07-09T04:17:06;21.20;99.90
31661;DHT22;18267;52.234;7.444;2023-07-09T04:19:31;21.30;99.90
31661;DHT22;18267;52.234;7.444;2023-07-09T04:21:57;21.30;99.90
31661;DHT22;18267;52.234;7.444;2023-07-09T04:24:22;21.40;99.90
31661;DHT22;18267;52.234;7.444;2023-07-09T04:26:48;21.40;99.90
31661;DHT22;18267;52.234;7.444;2023-07-09T04:29:14;21.60;99.90
31661;DHT22;18267;52.234;7.444;2023-07-09T04:31:41;21.60;99.90
31661;DHT22;18267;52.234;7.444;2023-07-09T04:34:08;21.50;99.90
31661;DHT22;18267;52.234;7.444;2023-07-09T04:36:34;21.60;99.90
31661;DHT22;18267;52.234;7.444;2023-07-09T04:39:00;21.80;99.90
31661;DHT22;18267;52.234;7.444;2023-07-09T04:41:26;21.90;99.90
31661;DHT22;18267;52.234;7.444;2023-07-09T04:43:52;22.20;99.90
31661;DHT22;18267;52.234;7.444;2023-07-09T04:46:19;22.30;99.90
31661;DHT22;18267;52.234;7.444;2023-07-09T04:48:45;22.20;99.90
31661;DHT22;18267;52.234;7.444;2023-07-09T04:51:12;22.20;99.90
31661;DHT22;18267;52.234;7.444;2023-07-09T04:53:54;22.20;99.90
31661;DHT22;18267;52.234;7.444;2023-07-09T04:56:38;22.30;99.90
31661;DHT22;18267;52.234;7.444;2023-07-09T04:59:05;22.40;99.90
31661;DHT22;18267;52.234;7.444;2023-07-09T05:01:41;22.60;99.90
31661;DHT22;18267;52.234;7.444;2023-07-09T05:04:23;22.80;99.90
31661;DHT22;18267;52.234;7.444;2023-07-09T05:06:49;22.90;99.90
31661;DHT22;18267;52.234;7.444;2023-07-09T05:09:14;23.00;99.90
31661;DHT22;18267;52.234;7.444;2023-07-09T05:11:40;23.20;99.90
31661;DHT22;18267;52.234;7.444;2023-07-09T05:14:05;23.30;99.90
31661;DHT22;18267;52.234;7.444;2023-07-09T05:16:31;23.30;99.90
31661;DHT22;18267;52.234;7.444;2023-07-09T05:18:57;23.40;99.90
31661;DHT22;18267;52.234;7.444;2023-07-09T05:21:22;23.40;99.90
31661;DHT22;18267;52.234;7.444;2023-07-09T05:23:48;23.40;99.90
31661;DHT22;18267;52.234;7.444;2023-07-09T05:26:13;23.30;99.90
31661;DHT22;18267;52.234;7.444;2023-07-09T05:28:39;23.30;99.90
31661;DHT22;18267;52.234;7.444;2023-07-09T05:31:05;23.40;99.90
31661;DHT22;18267;52.234;7.444;2023-07-09T05:33:31;23.60;99.90
31661;DHT22;18267;52.234;7.444;2023-07-09T05:35:57;23.60;99.90
31661;DHT22;18267;52.234;7.444;2023-07-09T05:38:22;23.70;99.90
31661;DHT22;18267;52.234;7.444;2023-07-09T05:40:48;23.80;99.90
31661;DHT22;18267;52.234;7.444;2023-07-09T05:43:14;23.80;99.90
31661;DHT22;18267;52.234;7.444;2023-07-09T05:45:39;24.00;99.90
31661;DHT22;18267;52.234;7.444;2023-07-09T05:48:05;24.00;99.90
31661;DHT22;18267;52.234;7.444;2023-07-09T05:50:33;24.00;99.90
31661;DHT22;18267;52.234;7.444;2023-07-09T05:52:59;24.20;99.90
31661;DHT22;18267;52.234;7.444;2023-07-09T05:55:25;24.20;99.90
31661;DHT22;18267;52.234;7.444;2023-07-09T05:57:52;24.30;99.90
31661;DHT22;18267;52.234;7.444;2023-07-09T06:00:18;24.50;99.90
31661;DHT22;18267;52.234;7.444;2023-07-09T06:02:43;24.60;99.90
31661;DHT22;18267;52.234;7.444;2023-07-09T06:05:09;24.70;99.90
31661;DHT22;18267;52.234;7.444;2023-07-09T06:07:37;24.70;99.90
31661;DHT22;18267;52.234;7.444;2023-07-09T06:10:04;24.80;99.90
31661;DHT22;18267;52.234;7.444;2023-07-09T06:12:30;24.80;99.90
31661;DHT22;18267;52.234;7.444;2023-07-09T06:14:56;24.80;99.90
31661;DHT22;18267;52.234;7.444;2023-07-09T06:17:22;24.80;99.90
31661;DHT22;18267;52.234;7.444;2023-07-09T06:19:47;24.80;99.90
31661;DHT22;18267;52.234;7.444;2023-07-09T06:22:13;24.80;99.90
31661;DHT22;18267;52.234;7.444;2023-07-09T06:24:38;24.90;99.90
31661;DHT22;18267;52.234;7.444;2023-07-09T06:27:04;25.00;99.90
31661;DHT22;18267;52.234;7.444;2023-07-09T06:29:30;25.00;99.90
31661;DHT22;18267;52.234;7.444;2023-07-09T06:31:55;25.10;99.90
31661;DHT22;18267;52.234;7.444;2023-07-09T06:34:21;25.20;99.90
31661;DHT22;18267;52.234;7.444;2023-07-09T06:36:48;25.20;99.90
31661;DHT22;18267;52.234;7.444;2023-07-09T06:39:14;25.30;99.90
31661;DHT22;18267;52.234;7.444;2023-07-09T06:41:40;25.40;99.90
31661;DHT22;18267;52.234;7.444;2023-07-09T06:44:09;25.50;99.90
31661;DHT22;18267;52.234;7.444;2023-07-09T06:46:35;25.60;99.90
31661;DHT22;18267;52.234;7.444;2023-07-09T06:49:01;25.60;99.90
31661;DHT22;18267;52.234;7.444;2023-07-09T06:51:27;25.80;99.90
31661;DHT22;18267;52.234;7.444;2023-07-09T06:53:53;25.80;99.90
31661;DHT22;18267;52.234;7.444;2023-07-09T06:56:19;25.80;99.90
31661;DHT22;18267;52.234;7.444;2023-07-09T06:58:46;25.80;99.90
31661;DHT22;18267;52.234;7.444;2023-07-09T07:01:12;25.90;99.90
31661;DHT22;18267;52.234;7.444;2023-07-09T07:03:47;25.90;99.90
31661;DHT22;18267;52.234;7.444;2023-07-09T07:06:12;26.00;99.90
31661;DHT22;18267;52.234;7.444;2023-07-09T07:08:38;26.10;99.90
31661;DHT22;18267;52.234;7.444;2023-07-09T07:11:04;26.20;99.90
31661;DHT22;18267;52.234;7.444;2023-07-09T07:13:34;26.20;99.90
31661;DHT22;18267;52.234;7.444;2023-07-09T07:16:01;26.20;99.90
31661;DHT22;18267;52.234;7.444;2023-07-09T07:18:27;26.20;99.90
31661;DHT22;18267;52.234;7.444;2023-07-09T07:20:53;26.30;99.90
31661;DHT22;18267;52.234;7.444;2023-07-09T07:23:21;26.30;99.90
31661;DHT22;18267;52.234;7.444;2023-07-09T07:26:15;26.30;99.90
31661;DHT22;18267;52.234;7.444;2023-07-09T07:28:41;26.30;99.90
31661;DHT22;18267;52.234;7.444;2023-07-09T07:31:08;26.40;99.90
31661;DHT22;18267;52.234;7.444;2023-07-09T07:33:51;26.40;99.90
31661;DHT22;18267;52.234;7.444;2023-07-09T07:36:47;26.50;99.90
31661;DHT22;18267;52.234;7.444;2023-07-09T07:39:31;26.50;99.90
31661;DHT22;18267;52.234;7.444;2023-07-09T07:42:01;26.50;99.90
31661;DHT22;18267;52.234;7.444;2023-07-09T07:44:32;26.60;99.90
31661;DHT22;18267;52.234;7.444;2023-07-09T07:46:58;26.70;99.90
31661;DHT22;18267;52.234;7.444;2023-07-09T07:49:24;26.80;99.90
31661;DHT22;18267;52.234;7.444;2023-07-09T07:51:50;26.80;99.90
31661;DHT22;18267;52.234;7.444;2023-07-09T07:54:49;26.90;99.90
31661;DHT22;18267;52.234;7.444;2023-07-09T07:57:55;27.00;99.90
31661;DHT22;18267;52.234;7.444;2023-07-09T08:03:57;27.10;99.90
31661;DHT22;18267;52.234;7.444;2023-07-09T08:06:26;27.10;99.90
31661;DHT22;18267;52.234;7.444;2023-07-09T08:08:55;27.20;99.90
31661;DHT22;18267;52.234;7.444;2023-07-09T08:11:23;27.20;99.90
31661;DHT22;18267;52.234;7.444;2023-07-09T08:13:49;27.10;99.90
31661;DHT22;18267;52.234;7.444;2023-07-09T08:16:32;27.20;99.90
31661;DHT22;18267;52.234;7.444;2023-07-09T08:18:58;27.20;99.90
31661;DHT22;18267;52.234;7.444;2023-07-09T08:21:23;27.20;99.90
31661;DHT22;18267;52.234;7.444;2023-07-09T08:23:49;27.30;99.90
31661;DHT22;18267;52.234;7.444;2023-07-09T08:26:15;27.30;99.90
31661;DHT22;18267;52.234;7.444;2023-07-09T08:28:41;27.30;99.60
31661;DHT22;18267;52.234;7.444;2023-07-09T08:31:10;27.40;99.90
31661;DHT22;18267;52.234;7.444;2023-07-09T08:33:37;27.40;99.90
31661;DHT22;18267;52.234;7.444;2023-07-09T08:36:53;27.50;99.90
31661;DHT22;18267;52.234;7.444;2023-07-09T08:39:47;27.50;99.90
31661;DHT22;18267;52.234;7.444;2023-07-09T08:43:12;27.60;99.90
31661;DHT22;18267;52.234;7.444;2023-07-09T08:49:02;27.70;99.70
31661;DHT22;18267;52.234;7.444;2023-07-09T08:52:05;27.80;99.60
31661;DHT22;18267;52.234;7.444;2023-07-09T08:55:27;27.80;98.80
31661;DHT22;18267;52.234;7.444;2023-07-09T09:02:14;28.00;99.70
31661;DHT22;18267;52.234;7.444;2023-07-09T09:12:25;28.20;99.50
31661;DHT22;18267;52.234;7.444;2023-07-09T09:22:46;28.30;99.90
31661;DHT22;18267;52.234;7.444;2023-07-09T09:35:18;28.50;98.70
31661;DHT22;18267;52.234;7.444;2023-07-09T09:37:53;28.50;98.30
31661;DHT22;18267;52.234;7.444;2023-07-09T09:40:20;28.50;97.80
31661;DHT22;18267;52.234;7.444;2023-07-09T09:42:50;28.60;98.80
31661;DHT22;18267;52.234;7.444;2023-07-09T09:45:18;28.70;98.00
31661;DHT22;18267;52.234;7.444;2023-07-09T09:47:47;28.70;97.80
31661;DHT22;18267;52.234;7.444;2023-07-09T09:50:21;28.90;97.20
31661;DHT22;18267;52.234;7.444;2023-07-09T09:52:48;28.90;97.50
31661;DHT22;18267;52.234;7.444;2023-07-09T09:55:22;28.90;97.60
31661;DHT22;18267;52.234;7.444;2023-07-09T09:57:53;28.90;97.90
31661;DHT22;18267;52.234;7.444;2023-07-09T10:03:33;29.00;96.90
31661;DHT22;18267;52.234;7.444;2023-07-09T10:06:07;29.10;96.70
31661;DHT22;18267;52.234;7.444;2023-07-09T10:11:37;29.10;97.10
31661;DHT22;18267;52.234;7.444;2023-07-09T10:16:58;29.20;97.50
31661;DHT22;18267;52.234;7.444;2023-07-09T10:19:39;29.20;97.00
31661;DHT22;18267;52.234;7.444;2023-07-09T10:28:22;29.40;95.80
31661;DHT22;18267;52.234;7.444;2023-07-09T10:34:11;29.50;95.80
31661;DHT22;18267;52.234;7.444;2023-07-09T10:39:27;29.60;95.60
31661;DHT22;18267;52.234;7.444;2023-07-09T10:41:57;29.60;96.10
31661;DHT22;18267;52.234;7.444;2023-07-09T10:44:41;29.60;96.30
31661;DHT22;18267;52.234;7.444;2023-07-09T10:47:16;29.60;94.60
31661;DHT22;18267;52.234;7.444;2023-07-09T10:49:49;29.70;93.90
31661;DHT22;18267;52.234;7.444;2023-07-09T10:55:07;29.80;94.00
31661;DHT22;18267;52.234;7.444;2023-07-09T10:57:59;29.80;94.60
31661;DHT22;18267;52.234;7.444;2023-07-09T11:00:59;29.80;94.60
31661;DHT22;18267;52.234;7.444;2023-07-09T11:03:36;29.90;94.20
31661;DHT22;18267;52.234;7.444;2023-07-09T11:06:04;30.00;93.70
31661;DHT22;18267;52.234;7.444;2023-07-09T11:08:36;30.10;93.60
31661;DHT22;18267;52.234;7.444;2023-07-09T11:11:20;30.00;94.20
31661;DHT22;18267;52.234;7.444;2023-07-09T11:13:56;30.10;93.10
31661;DHT22;18267;52.234;7.444;2023-07-09T11:16:30;30.00;93.10
31661;DHT22;18267;52.234;7.444;2023-07-09T11:19:00;30.10;94.00
31661;DHT22;18267;52.234;7.444;2023-07-09T11:21:29;30.10;94.00
31661;DHT22;18267;52.234;7.444;2023-07-09T11:23:57;30.20;94.90
31661;DHT22;18267;52.234;7.444;2023-07-09T11:26:30;30.30;95.10
31661;DHT22;18267;52.234;7.444;2023-07-09T11:29:14;30.40;93.70
31661;DHT22;18267;52.234;7.444;2023-07-09T11:31:43;30.40;91.40
31661;DHT22;18267;52.234;7.444;2023-07-09T11:37:08;30.50;91.20
31661;DHT22;18267;52.234;7.444;2023-07-09T11:42:01;30.50;90.30
31661;DHT22;18267;52.234;7.444;2023-07-09T11:44:32;30.60;90.60
31661;DHT22;18267;52.234;7.444;2023-07-09T11:47:21;30.60;89.30
31661;DHT22;18267;52.234;7.444;2023-07-09T11:50:01;30.70;88.50
31661;DHT22;18267;52.234;7.444;2023-07-09T11:52:43;30.60;90.30
31661;DHT22;18267;52.234;7.444;2023-07-09T11:57:52;30.70;90.20
31661;DHT22;18267;52.234;7.444;2023-07-09T12:00:19;30.70;91.10
31661;DHT22;18267;52.234;7.444;2023-07-09T12:02:45;30.70;91.00
31661;DHT22;18267;52.234;7.444;2023-07-09T12:05:11;30.80;90.00
31661;DHT22;18267;52.234;7.444;2023-07-09T12:07:37;30.80;90.60
31661;DHT22;18267;52.234;7.444;2023-07-09T12:10:24;30.80;89.60
31661;DHT22;18267;52.234;7.444;2023-07-09T12:12:58;30.90;90.60
31661;DHT22;18267;52.234;7.444;2023-07-09T12:15:26;30.80;89.40
31661;DHT22;18267;52.234;7.444;2023-07-09T12:17:54;30.70;90.00
31661;DHT22;18267;52.234;7.444;2023-07-09T12:20:20;30.70;90.10
31661;DHT22;18267;52.234;7.444;2023-07-09T12:22:47;30.80;90.20
31661;DHT22;18267;52.234;7.444;2023-07-09T12:25:24;30.90;90.40
31661;DHT22;18267;52.234;7.444;2023-07-09T12:27:50;30.90;90.40
31661;DHT22;18267;52.234;7.444;2023-07-09T12:30:17;30.90;89.90
31661;DHT22;18267;52.234;7.444;2023-07-09T12:32:45;31.00;90.00
31661;DHT22;18267;52.234;7.444;2023-07-09T12:35:13;30.90;89.30
31661;DHT22;18267;52.234;7.444;2023-07-09T12:37:42;30.90;90.10
31661;DHT22;18267;52.234;7.444;2023-07-09T12:40:21;31.00;90.40
31661;DHT22;18267;52.234;7.444;2023-07-09T12:42:47;31.10;90.10
31661;DHT22;18267;52.234;7.444;2023-07-09T12:45:18;31.10;90.60
31661;DHT22;18267;52.234;7.444;2023-07-09T12:47:49;31.10;90.60
31661;DHT22;18267;52.234;7.444;2023-07-09T12:50:30;31.20;90.30
31661;DHT22;18267;52.234;7.444;2023-07-09T12:53:20;31.20;87.90
31661;DHT22;18267;52.234;7.444;2023-07-09T12:55:49;31.30;90.00
31661;DHT22;18267;52.234;7.444;2023-07-09T12:58:21;31.20;90.80
31661;DHT22;18267;52.234;7.444;2023-07-09T13:00:55;31.30;91.40
31661;DHT22;18267;52.234;7.444;2023-07-09T13:03:27;31.40;90.90
31661;DHT22;18267;52.234;7.444;2023-07-09T13:05:57;31.40;91.00
31661;DHT22;18267;52.234;7.444;2023-07-09T13:08:25;31.50;88.50
31661;DHT22;18267;52.234;7.444;2023-07-09T13:10:51;31.50;88.80
31661;DHT22;18267;52.234;7.444;2023-07-09T13:13:21;31.60;88.40
31661;DHT22;18267;52.234;7.444;2023-07-09T13:15:59;31.60;88.70
31661;DHT22;18267;52.234;7.444;2023-07-09T13:18:32;31.60;89.80
31661;DHT22;18267;52.234;7.444;2023-07-09T13:21:17;31.70;90.80
31661;DHT22;18267;52.234;7.444;2023-07-09T13:23:45;31.70;90.70
31661;DHT22;18267;52.234;7.444;2023-07-09T13:26:13;31.80;86.60
31661;DHT22;18267;52.234;7.444;2023-07-09T13:28:44;31.90;88.10
31661;DHT22;18267;52.234;7.444;2023-07-09T13:31:36;31.90;90.30
31661;DHT22;18267;52.234;7.444;2023-07-09T13:34:04;31.90;88.40
31661;DHT22;18267;52.234;7.444;2023-07-09T13:36:34;31.90;88.30
31661;DHT22;18267;52.234;7.444;2023-07-09T13:39:07;32.00;88.50
31661;DHT22;18267;52.234;7.444;2023-07-09T13:41:44;32.00;87.60
31661;DHT22;18267;52.234;7.444;2023-07-09T13:44:17;32.00;85.30
31661;DHT22;18267;52.234;7.444;2023-07-09T13:46:43;32.10;87.00
31661;DHT22;18267;52.234;7.444;2023-07-09T13:49:18;32.10;86.70
31661;DHT22;18267;52.234;7.444;2023-07-09T13:52:01;32.30;88.00
31661;DHT22;18267;52.234;7.444;2023-07-09T13:55:03;32.20;85.50
31661;DHT22;18267;52.234;7.444;2023-07-09T14:01:57;32.30;87.20
31661;DHT22;18267;52.234;7.444;2023-07-09T14:04:26;32.30;85.90
31661;DHT22;18267;52.234;7.444;2023-07-09T14:06:52;32.20;83.40
31661;DHT22;18267;52.234;7.444;2023-07-09T14:09:36;32.20;84.20
31661;DHT22;18267;52.234;7.444;2023-07-09T14:12:08;32.20;85.00
31661;DHT22;18267;52.234;7.444;2023-07-09T14:14:34;32.20;84.90
31661;DHT22;18267;52.234;7.444;2023-07-09T14:17:33;32.20;84.60
31661;DHT22;18267;52.234;7.444;2023-07-09T14:20:58;32.20;84.90
31661;DHT22;18267;52.234;7.444;2023-07-09T14:27:51;32.30;84.30
31661;DHT22;18267;52.234;7.444;2023-07-09T14:37:44;32.50;82.30
31661;DHT22;18267;52.234;7.444;2023-07-09T14:40:52;32.50;82.90
31661;DHT22;18267;52.234;7.444;2023-07-09T14:43:57;32.40;83.90
31661;DHT22;18267;52.234;7.444;2023-07-09T14:47:39;32.40;86.50
31661;DHT22;18267;52.234;7.444;2023-07-09T14:50:39;32.30;86.30
31661;DHT22;18267;52.234;7.444;2023-07-09T14:53:24;32.30;85.20
31661;DHT22;18267;52.234;7.444;2023-07-09T14:55:52;32.20;86.90
31661;DHT22;18267;52.234;7.444;2023-07-09T14:58:20;32.10;87.80
31661;DHT22;18267;52.234;7.444;2023-07-09T15:00:46;32.10;87.30
31661;DHT22;18267;52.234;7.444;2023-07-09T15:03:51;32.10;89.10
31661;DHT22;18267;52.234;7.444;2023-07-09T15:06:59;32.10;90.00
31661;DHT22;18267;52.234;7.444;2023-07-09T15:10:01;32.00;89.80
31661;DHT22;18267;52.234;7.444;2023-07-09T15:12:45;31.90;89.80
31661;DHT22;18267;52.234;7.444;2023-07-09T15:18:39;31.70;90.60
31661;DHT22;18267;52.234;7.444;2023-07-09T15:25:24;31.40;91.40
31661;DHT22;18267;52.234;7.444;2023-07-09T15:28:12;31.20;91.70
31661;DHT22;18267;52.234;7.444;2023-07-09T15:31:12;31.10;91.90
31661;DHT22;18267;52.234;7.444;2023-07-09T15:37:17;30.80;92.90
31661;DHT22;18267;52.234;7.444;2023-07-09T15:40:38;30.50;94.20
31661;DHT22;18267;52.234;7.444;2023-07-09T15:43:23;30.30;95.30
31661;DHT22;18267;52.234;7.444;2023-07-09T15:45:50;30.10;95.10
31661;DHT22;18267;52.234;7.444;2023-07-09T15:48:33;30.00;95.20
31661;DHT22;18267;52.234;7.444;2023-07-09T15:51:03;29.80;95.70
31661;DHT22;18267;52.234;7.444;2023-07-09T15:53:30;29.80;96.00
31661;DHT22;18267;52.234;7.444;2023-07-09T15:56:03;29.60;96.70
31661;DHT22;18267;52.234;7.444;2023-07-09T15:58:35;29.50;97.20
31661;DHT22;18267;52.234;7.444;2023-07-09T16:01:02;29.50;97.80
31661;DHT22;18267;52.234;7.444;2023-07-09T16:03:29;29.40;97.90
31661;DHT22;18267;52.234;7.444;2023-07-09T16:05:55;29.30;97.80
31661;DHT22;18267;52.234;7.444;2023-07-09T16:08:20;29.30;97.90
31661;DHT22;18267;52.234;7.444;2023-07-09T16:10:52;29.20;99.90
31661;DHT22;18267;52.234;7.444;2023-07-09T16:13:21;29.10;99.90
31661;DHT22;18267;52.234;7.444;2023-07-09T16:15:47;29.10;99.90
31661;DHT22;18267;52.234;7.444;2023-07-09T16:18:14;29.00;98.40
31661;DHT22;18267;52.234;7.444;2023-07-09T16:20:40;28.40;98.20
31661;DHT22;18267;52.234;7.444;2023-07-09T16:23:21;27.90;99.90
31661;DHT22;18267;52.234;7.444;2023-07-09T16:25:51;27.20;99.90
31661;DHT22;18267;52.234;7.444;2023-07-09T16:28:18;26.80;99.90
31661;DHT22;18267;52.234;7.444;2023-07-09T16:30:45;26.30;99.90
31661;DHT22;18267;52.234;7.444;2023-07-09T16:33:12;25.70;99.90
31661;DHT22;18267;52.234;7.444;2023-07-09T16:35:38;25.20;99.90
31661;DHT22;18267;52.234;7.444;2023-07-09T16:38:03;24.80;99.90
31661;DHT22;18267;52.234;7.444;2023-07-09T16:40:31;24.60;99.90
31661;DHT22;18267;52.234;7.444;2023-07-09T16:42:59;24.20;99.90
31661;DHT22;18267;52.234;7.444;2023-07-09T16:45:27;24.10;99.90
31661;DHT22;18267;52.234;7.444;2023-07-09T16:47:53;24.10;99.90
31661;DHT22;18267;52.234;7.444;2023-07-09T16:50:21;23.90;99.90
31661;DHT22;18267;52.234;7.444;2023-07-09T16:52:49;23.80;99.90
31661;DHT22;18267;52.234;7.444;2023-07-09T16:55:25;23.80;99.90
31661;DHT22;18267;52.234;7.444;2023-07-09T16:57:56;23.80;99.90
31661;DHT22;18267;52.234;7.444;2023-07-09T17:00:29;23.80;99.90
31661;DHT22;18267;52.234;7.444;2023-07-09T17:02:57;23.90;99.90
31661;DHT22;18267;52.234;7.444;2023-07-09T17:05:25;24.00;99.90
31661;DHT22;18267;52.234;7.444;2023-07-09T17:07:51;24.20;99.90
31661;DHT22;18267;52.234;7.444;2023-07-09T17:10:17;24.30;99.90
31661;DHT22;18267;52.234;7.444;2023-07-09T17:12:44;24.30;99.90
31661;DHT22;18267;52.234;7.444;2023-07-09T17:15:22;24.40;99.90
31661;DHT22;18267;52.234;7.444;2023-07-09T17:17:49;24.40;99.90
31661;DHT22;18267;52.234;7.444;2023-07-09T17:20:15;24.40;99.90
31661;DHT22;18267;52.234;7.444;2023-07-09T17:22:42;24.00;99.90
31661;DHT22;18267;52.234;7.444;2023-07-09T17:25:33;23.90;99.90
31661;DHT22;18267;52.234;7.444;2023-07-09T17:28:12;23.80;99.90
31661;DHT22;18267;52.234;7.444;2023-07-09T17:30:41;23.60;99.90
31661;DHT22;18267;52.234;7.444;2023-07-09T17:33:06;23.20;99.90
31661;DHT22;18267;52.234;7.444;2023-07-09T17:35:34;23.20;99.90
31661;DHT22;18267;52.234;7.444;2023-07-09T17:38:02;23.20;99.90
31661;DHT22;18267;52.234;7.444;2023-07-09T17:40:32;23.30;99.90